Terminal Aerodrome Forecast
Issued by NWS Portland, OR

Home | Current Version | Previous Version | Text Only | Print | Product List | Glossary On
Versions: 1 2 3 4 5 6 7 8 9 10 11 12 13 14 15 16 17 18 19 20 21 22 23 24 25 26 27 28 29
000
FTUS46 KPQR 240459 AAA
TAFHIO
TAF AMD
KHIO 240459Z 2405/2424 20006KT P6SM VCSH FEW030 BKN050
     FM241200 20009KT P6SM VCSH SCT025 OVC040
      TEMPO 2412/2416 BKN025 OVC040
     FM241800 28007KT P6SM BKN040=

USA.gov is the U.S. government's official web portal to all federal, state and local government web resources and services.